Time;durP1;ratioP1;P1;durP2;ratioP2;P2;SDS_P1;SDS_P2;PMS_P1;PMS_P2;Temp;Humidity;BMP_temperature;BMP_pressure;BME280_temperature;BME280_humidity;BME280_pressure;Samples;Min_cycle;Max_cycle;Signal;HPM_P1;HPM_P2
2022/06/15 00:01:31;;;;;;;5.20;4.88;;;;;;;13.48;100.00;101822.66;5269580;28;20084;-62
2022/06/15 00:04:03;;;;;;;6.18;5.35;;;;;;;13.51;100.00;101836.53;5269392;28;20510;-62
2022/06/15 00:06:39;;;;;;;4.47;4.18;;;;;;;13.50;100.00;101826.75;5269401;28;20073;-63
2022/06/15 00:09:10;;;;;;;5.95;5.20;;;;;;;13.42;100.00;101816.34;5269563;28;20457;-62
2022/06/15 00:11:43;;;;;;;6.47;5.63;;;;;;;13.41;100.00;101825.53;5269405;28;20075;-62
2022/06/15 00:14:23;;;;;;;5.88;5.20;;;;;;;13.28;100.00;101812.34;5287493;28;20576;-63
2022/06/15 00:16:54;;;;;;;6.07;4.55;;;;;;;13.37;100.00;101821.69;5269271;28;20034;-63
2022/06/15 00:19:25;;;;;;;4.85;4.53;;;;;;;13.37;100.00;101821.69;5269430;28;20161;-63
2022/06/15 00:21:56;;;;;;;5.32;4.97;;;;;;;13.29;100.00;101819.41;5269234;28;20122;-62
2022/06/15 00:24:26;;;;;;;5.07;4.45;;;;;;;13.26;100.00;101819.09;5268998;28;20118;-62
2022/06/15 00:26:56;;;;;;;9.60;4.38;;;;;;;13.19;100.00;101808.44;5268006;28;20431;-62
2022/06/15 00:29:27;;;;;;;5.68;5.03;;;;;;;13.23;100.00;101809.56;5269287;28;20019;-62
2022/06/15 00:31:57;;;;;;;4.82;4.53;;;;;;;13.25;100.00;101818.28;5269446;28;20030;-61
2022/06/15 00:34:28;;;;;;;15.10;5.18;;;;;;;13.21;100.00;101810.91;5269037;28;20110;-63
2022/06/15 00:36:59;;;;;;;5.53;5.18;;;;;;;13.13;100.00;101810.22;5269244;28;20062;-63
2022/06/15 00:39:30;;;;;;;5.40;5.10;;;;;;;13.15;100.00;101809.97;5269411;28;20399;-63
2022/06/15 00:42:01;;;;;;;6.97;6.32;;;;;;;13.14;100.00;101802.91;5269214;28;20027;-62
2022/06/15 00:44:35;;;;;;;4.72;4.53;;;;;;;13.03;100.00;101793.78;5268854;28;20066;-63
2022/06/15 00:47:23;;;;;;;6.95;4.63;;;;;;;13.09;100.00;101797.41;5269232;28;20035;-64
2022/06/15 00:50:08;;;;;;;5.15;4.70;;;;;;;13.09;100.00;101809.06;5268792;28;20486;-63
2022/06/15 00:52:47;;;;;;;6.25;5.75;;;;;;;13.06;100.00;101804.13;5269185;28;20031;-63
2022/06/15 00:55:31;;;;;;;5.73;5.23;;;;;;;13.00;100.00;101798.88;5268830;28;20728;-63
2022/06/15 00:58:05;;;;;;;4.70;4.40;;;;;;;13.00;100.00;101812.44;5268996;28;20273;-63
2022/06/15 01:00:36;;;;;;;6.07;5.53;;;;;;;13.01;100.00;101806.78;5270754;28;20026;-64
2022/06/15 01:03:12;;;;;;;5.13;4.70;;;;;;;12.96;100.00;101798.59;5272691;28;20028;-63
2022/06/15 01:05:58;;;;;;;10.77;5.00;;;;;;;12.96;100.00;101797.78;5272788;28;20514;-63
2022/06/15 01:08:37;;;;;;;6.57;6.00;;;;;;;12.80;100.00;101778.56;5272181;28;20031;-64
2022/06/15 01:11:21;;;;;;;5.28;4.90;;;;;;;12.91;100.00;101789.56;5272932;28;20110;-63
2022/06/15 01:14:04;;;;;;;5.63;5.18;;;;;;;12.94;100.00;101794.47;5295374;22;20398;-77
2022/06/15 01:30:27;;;;;;;6.43;5.70;;;;;;;12.82;100.00;101794.56;5883063;22;20048;-78
2022/06/15 01:33:28;;;;;;;6.18;5.80;;;;;;;12.77;100.00;101789.88;5252652;28;20044;-79
2022/06/15 01:36:04;;;;;;;5.65;5.25;;;;;;;12.63;100.00;101761.50;5251866;28;20025;-78
2022/06/15 01:39:22;;;;;;;6.80;5.22;;;;;;;12.76;100.00;101782.81;5269198;28;20381;-77
2022/06/15 01:41:55;;;;;;;6.22;5.38;;;;;;;12.71;100.00;101780.03;5272457;28;20493;-77
2022/06/15 01:50:31;;;;;;;5.25;4.82;;;;;;;12.58;100.00;101774.97;5267235;28;20047;-62
2022/06/15 01:53:04;;;;;;;6.20;5.70;;;;;;;12.58;100.00;101782.28;5269146;28;20115;-62
2022/06/15 01:55:46;;;;;;;7.13;6.32;;;;;;;12.59;100.00;101776.59;5285936;28;20036;-63
2022/06/15 01:58:21;;;;;;;5.63;5.15;;;;;;;12.34;100.00;101727.44;5269351;28;20483;-63
2022/06/15 02:01:00;;;;;;;6.43;5.93;;;;;;;12.60;100.00;101770.13;5268716;28;20493;-63
2022/06/15 02:03:54;;;;;;;4.82;4.50;;;;;;;12.61;100.00;101769.03;5268405;28;20026;-63
2022/06/15 02:06:30;;;;;;;6.95;5.70;;;;;;;12.61;100.00;101769.03;5269251;28;20117;-63
2022/06/15 02:09:21;;;;;;;6.43;5.80;;;;;;;12.58;100.00;101764.13;5268716;28;20024;-63
2022/06/15 02:11:51;;;;;;;9.70;6.50;;;;;;;12.59;100.00;101759.53;5267728;28;20091;-63
2022/06/15 02:14:39;;;;;;;6.00;5.70;;;;;;;12.54;100.00;101765.69;5270028;28;20028;-63
2022/06/15 02:17:22;;;;;;;6.40;5.82;;;;;;;12.46;100.00;101756.06;5269172;28;20089;-63
2022/06/15 02:19:59;;;;;;;6.65;6.32;;;;;;;12.48;100.00;101763.94;5269826;28;20107;-63
2022/06/15 02:22:33;;;;;;;7.95;5.68;;;;;;;12.44;100.00;101760.09;5270511;28;20046;-62
2022/06/15 02:25:08;;;;;;;9.85;6.43;;;;;;;12.40;100.00;101762.50;5268723;28;20028;-62
2022/06/15 02:27:41;;;;;;;8.00;7.45;;;;;;;12.36;100.00;101753.22;5268983;28;20395;-64
2022/06/15 02:30:16;;;;;;;11.07;5.80;;;;;;;12.34;100.00;101766.19;5268609;28;20023;-62
2022/06/15 02:32:48;;;;;;;11.20;7.72;;;;;;;12.25;100.00;101756.81;5268663;28;20031;-65
2022/06/15 03:08:07;;;;;;;6.80;6.28;;;;;;;11.68;100.00;101737.06;5747773;22;20051;-78
2022/06/15 03:10:38;;;;;;;6.18;5.63;;;;;;;11.76;100.00;101753.78;5317431;27;20369;-78
2022/06/15 03:13:08;;;;;;;7.22;6.78;;;;;;;11.66;100.00;101741.91;5325666;27;20023;-78
2022/06/15 03:15:39;;;;;;;6.78;5.90;;;;;;;11.49;100.00;101723.75;5327132;27;20031;-78
2022/06/15 03:18:09;;;;;;;7.25;6.85;;;;;;;11.65;100.00;101754.59;5326877;27;20060;-78
2022/06/15 03:20:40;;;;;;;7.68;6.15;;;;;;;11.65;100.00;101759.19;5328427;27;20157;-78
2022/06/15 03:26:37;;;;;;;5.43;4.93;;;;;;;11.64;100.00;101754.84;5326314;27;20050;-78
2022/06/15 03:29:08;;;;;;;6.60;6.03;;;;;;;11.62;100.00;101762.38;5322718;27;20019;-78
2022/06/15 03:31:38;;;;;;;7.95;7.20;;;;;;;11.62;100.00;101759.69;5302332;27;20064;-78
2022/06/15 03:34:08;;;;;;;8.40;6.35;;;;;;;11.59;100.00;101755.56;5311997;27;20059;-77
2022/06/15 03:36:39;;;;;;;8.43;7.72;;;;;;;11.59;100.00;101743.91;5295461;27;20463;-78
2022/06/15 03:39:09;;;;;;;8.23;7.75;;;;;;;11.58;100.00;101742.28;5313894;27;20030;-78
2022/06/15 03:41:40;;;;;;;14.55;8.52;;;;;;;11.62;100.00;101746.16;5314142;27;20018;-77
2022/06/15 03:44:10;;;;;;;8.25;7.70;;;;;;;11.62;100.00;101762.38;5313431;27;20027;-78
2022/06/15 03:46:41;;;;;;;6.97;6.57;;;;;;;11.57;100.00;101746.03;5313086;27;20049;-78
2022/06/15 03:49:11;;;;;;;10.23;7.20;;;;;;;11.64;100.00;101757.56;5313846;27;20019;-78
2022/06/15 03:51:41;;;;;;;8.93;8.07;;;;;;;11.64;100.00;101755.66;5294392;27;20138;-79
2022/06/15 03:54:12;;;;;;;12.52;7.32;;;;;;;11.62;100.00;101754.25;5313243;27;20338;-77
2022/06/15 03:56:48;;;;;;;12.57;9.38;;;;;;;11.64;100.00;101752.97;5313839;27;20046;-77
2022/06/15 03:59:19;;;;;;;11.40;7.95;;;;;;;11.65;100.00;101759.19;5310774;27;20476;-79
2022/06/15 04:01:49;;;;;;;6.57;6.07;;;;;;;11.69;100.00;101754.94;5311143;27;20093;-78
2022/06/15 04:04:20;;;;;;;6.10;5.75;;;;;;;11.66;100.00;101756.25;5312585;27;20107;-77
2022/06/15 04:06:51;;;;;;;7.30;6.80;;;;;;;11.72;100.00;101749.88;5313144;27;20019;-78
2022/06/15 04:09:22;;;;;;;7.40;6.97;;;;;;;11.71;100.00;101752.81;5312617;27;20103;-77
2022/06/15 04:12:08;;;;;;;8.38;7.47;;;;;;;11.73;100.00;101754.22;5313411;27;20038;-78
2022/06/15 04:14:38;;;;;;;7.82;7.15;;;;;;;11.79;100.00;101766.00;5312874;27;20026;-78
2022/06/15 04:17:11;;;;;;;10.70;9.27;;;;;;;11.79;100.00;101766.00;5330364;27;20086;-77
2022/06/15 04:19:41;;;;;;;8.02;7.38;;;;;;;11.78;100.00;101769.78;5330156;27;20015;-79
2022/06/15 04:22:12;;;;;;;8.02;7.40;;;;;;;11.72;100.00;101740.94;5302742;27;20541;-78
2022/06/15 04:24:42;;;;;;;7.88;7.07;;;;;;;11.94;100.00;101768.97;5331020;27;20019;-79
2022/06/15 04:27:14;;;;;;;9.00;8.20;;;;;;;12.21;100.00;101773.78;5298514;22;20036;-63
2022/06/15 04:29:45;;;;;;;7.93;7.25;;;;;;;12.55;100.00;101767.31;5227063;28;20503;-64
2022/06/15 04:32:15;;;;;;;8.35;7.75;;;;;;;12.88;100.00;101766.47;5227331;28;20024;-64
2022/06/15 04:34:46;;;;;;;7.28;6.90;;;;;;;13.21;100.00;101773.75;5228747;28;20388;-66
2022/06/15 04:37:20;;;;;;;7.10;6.40;;;;;;;13.54;100.00;101767.38;5248818;28;20028;-64
2022/06/15 04:39:50;;;;;;;6.47;6.13;;;;;;;13.83;100.00;101770.69;5248245;28;20111;-64
2022/06/15 04:42:21;;;;;;;8.27;7.57;;;;;;;14.07;100.00;101760.34;5248714;28;20169;-64
2022/06/15 04:44:51;;;;;;;7.18;6.55;;;;;;;14.32;100.00;101765.16;5248569;28;20062;-64
2022/06/15 04:47:22;;;;;;;7.07;6.65;;;;;;;14.48;100.00;101762.34;5249165;28;20472;-63
2022/06/15 04:49:52;;;;;;;8.52;6.68;;;;;;;14.45;100.00;101734.84;5248231;28;20547;-63
2022/06/15 04:52:23;;;;;;;7.63;7.07;;;;;;;14.79;100.00;101763.38;5248994;28;20032;-63
2022/06/15 04:55:20;;;;;;;7.30;6.82;;;;;;;14.92;100.00;101758.56;5266508;28;20028;-63
2022/06/15 04:57:54;;;;;;;8.38;6.60;;;;;;;14.80;100.00;101737.81;5248147;28;20020;-63
2022/06/15 05:00:29;;;;;;;5.95;5.63;;;;;;;14.91;100.00;101771.34;5248580;28;20046;-63
2022/06/15 05:02:59;;;;;;;7.60;6.82;;;;;;;14.73;100.00;101741.84;5266310;28;20054;-63
2022/06/15 05:05:31;;;;;;;7.50;6.75;;;;;;;14.82;100.00;101764.75;5248423;28;20020;-64
2022/06/15 05:08:02;;;;;;;6.53;6.03;;;;;;;14.77;100.00;101765.53;5248697;28;20032;-66
2022/06/15 05:10:32;;;;;;;6.10;5.80;;;;;;;14.74;100.00;101770.66;5265331;28;20031;-64
2022/06/15 05:13:03;;;;;;;6.50;6.10;;;;;;;14.69;100.00;101778.81;5249291;28;20032;-65
2022/06/15 05:15:33;;;;;;;7.38;6.88;;;;;;;14.59;100.00;101776.00;5247769;28;20440;-64
2022/06/15 05:18:06;;;;;;;10.00;6.65;;;;;;;14.61;100.00;101780.13;5248181;28;20073;-64
2022/06/15 05:20:38;;;;;;;8.15;7.40;;;;;;;14.63;100.00;101785.28;5246044;28;20058;-64
2022/06/15 05:23:13;;;;;;;8.68;8.23;;;;;;;14.50;100.00;101762.06;5246347;28;20048;-63
2022/06/15 05:25:44;;;;;;;8.63;8.02;;;;;;;14.61;100.00;101771.97;5247912;28;20110;-64
2022/06/15 05:28:15;;;;;;;7.75;6.82;;;;;;;14.61;100.00;101782.84;5266059;28;20107;-64
2022/06/15 05:30:45;;;;;;;6.47;6.07;;;;;;;14.65;100.00;101770.38;5247484;28;20032;-65
2022/06/15 05:33:16;;;;;;;9.48;6.68;;;;;;;14.65;100.00;101773.09;5246868;28;20150;-64
2022/06/15 05:35:46;;;;;;;7.50;6.95;;;;;;;14.61;100.00;101777.41;5244958;28;20304;-64
2022/06/15 05:38:17;;;;;;;9.65;8.50;;;;;;;14.64;100.00;101770.63;5247727;28;20030;-64
2022/06/15 05:40:47;;;;;;;8.35;6.70;;;;;;;14.67;100.00;101768.19;5246792;28;20031;-64
2022/06/15 05:43:18;;;;;;;7.00;6.57;;;;;;;14.73;100.00;101769.03;5248093;28;20470;-65
2022/06/15 05:45:48;;;;;;;8.88;8.18;;;;;;;14.70;100.00;101766.88;5249571;28;20024;-63
2022/06/15 05:48:19;;;;;;;8.10;7.38;;;;;;;14.74;100.00;101774.22;5251487;28;20052;-64
2022/06/15 05:50:49;;;;;;;8.75;8.13;;;;;;;14.64;100.00;101755.13;5269876;28;20103;-63
2022/06/15 05:53:20;;;;;;;7.22;6.82;;;;;;;14.84;100.00;101771.56;5251460;28;20056;-64
2022/06/15 05:55:50;;;;;;;7.93;7.32;;;;;;;14.93;100.00;101777.34;5251325;28;20379;-64
2022/06/15 05:58:21;;;;;;;8.60;7.90;;;;;;;15.01;100.00;101774.13;5251200;28;20079;-64
2022/06/15 06:00:51;;;;;;;9.52;8.75;;;;;;;15.11;100.00;101778.78;5251299;28;20030;-63
2022/06/15 06:03:22;;;;;;;15.07;8.10;;;;;;;15.18;100.00;101769.31;5269226;28;20016;-64
2022/06/15 06:05:52;;;;;;;13.43;8.55;;;;;;;15.34;100.00;101772.09;5250920;28;20031;-64
2022/06/15 06:08:23;;;;;;;9.85;8.10;;;;;;;15.36;100.00;101770.75;5251235;28;20539;-63
2022/06/15 06:10:53;;;;;;;10.07;9.02;;;;;;;15.51;100.00;101765.38;5269200;28;20024;-63
2022/06/15 06:13:24;;;;;;;10.40;7.57;;;;;;;15.63;100.00;101753.47;5268823;28;20102;-63
2022/06/15 06:15:55;;;;;;;15.07;8.15;;;;;;;15.96;100.00;101763.06;5249874;28;20028;-63
2022/06/15 06:18:25;;;;;;;12.10;8.95;;;;;;;16.25;100.00;101766.09;5249567;28;20028;-63
2022/06/15 06:20:56;;;;;;;10.60;7.43;;;;;;;16.46;100.00;101775.91;5251166;28;20165;-64
2022/06/15 06:23:26;;;;;;;12.27;8.10;;;;;;;16.73;100.00;101765.59;5251964;28;20035;-62
2022/06/15 06:26:28;;;;;;;13.45;7.32;;;;;;;17.10;100.00;101775.31;5270848;28;20028;-62
2022/06/15 06:28:59;;;;;;;10.77;9.77;;;;;;;17.37;100.00;101766.75;5252627;28;20037;-63
2022/06/15 06:31:31;;;;;;;10.45;8.57;;;;;;;17.51;100.00;101773.25;5253309;28;20024;-62
2022/06/15 06:34:01;;;;;;;8.63;7.93;;;;;;;17.71;100.00;101775.09;5252806;28;20091;-62
2022/06/15 06:36:34;;;;;;;7.85;7.13;;;;;;;17.82;100.00;101774.75;5269007;28;20138;-62
2022/06/15 06:39:11;;;;;;;10.55;7.70;;;;;;;17.90;100.00;101773.38;5252424;28;20032;-62
2022/06/15 06:41:42;;;;;;;11.07;8.48;;;;;;;18.04;100.00;101774.34;5252397;28;20069;-61
2022/06/15 06:44:13;;;;;;;8.32;7.57;;;;;;;18.28;100.00;101779.91;5251815;28;20066;-63
2022/06/15 06:46:49;;;;;;;9.27;7.07;;;;;;;18.47;100.00;101780.88;5253373;28;20024;-63
2022/06/15 06:49:21;;;;;;;8.07;7.28;;;;;;;18.68;100.00;101777.97;5269908;28;20024;-63
2022/06/15 06:51:52;;;;;;;9.68;8.70;;;;;;;18.83;100.00;101784.09;5253214;28;20028;-63
2022/06/15 06:54:22;;;;;;;9.00;8.40;;;;;;;18.94;100.00;101768.41;5251133;28;20058;-63
2022/06/15 06:56:53;;;;;;;9.15;8.45;;;;;;;19.14;100.00;101759.13;5250366;28;20559;-63
2022/06/15 06:59:24;;;;;;;7.60;6.47;;;;;;;19.51;100.00;101774.88;5271329;28;20080;-62
2022/06/15 07:01:55;;;;;;;7.25;6.82;;;;;;;19.65;100.00;101783.19;5254152;28;20467;-63
2022/06/15 07:04:25;;;;;;;8.65;6.97;;;;;;;19.81;100.00;101773.66;5254522;28;20204;-65
2022/06/15 07:06:57;;;;;;;8.93;8.18;;;;;;;19.83;100.00;101771.44;5254085;28;20103;-63
2022/06/15 07:09:29;;;;;;;9.63;6.93;;;;;;;19.95;100.00;101779.19;5273269;28;20030;-63
2022/06/15 07:12:00;;;;;;;9.52;6.95;;;;;;;20.03;100.00;101771.13;5254749;28;20034;-62
2022/06/15 07:14:31;;;;;;;12.88;7.70;;;;;;;20.07;100.00;101783.13;5265412;22;20103;-63
2022/06/15 07:17:02;;;;;;;6.35;5.93;;;;;;;20.14;100.00;101782.78;5239131;28;20535;-62
2022/06/15 07:19:33;;;;;;;9.57;5.93;;;;;;;20.27;100.00;101775.69;5264468;28;20020;-65
2022/06/15 07:22:03;;;;;;;7.05;5.60;;;;;;;20.60;100.00;101784.78;5247631;28;20031;-63
2022/06/15 07:24:34;;;;;;;7.28;6.00;;;;;;;20.85;100.00;101782.41;5246725;28;20120;-63
2022/06/15 07:27:04;;;;;;;7.93;7.22;;;;;;;21.03;100.00;101772.47;5247643;28;20485;-63
2022/06/15 07:29:35;;;;;;;7.72;7.13;;;;;;;21.19;100.00;101767.47;5247628;28;20028;-62
2022/06/15 07:32:06;;;;;;;7.40;6.40;;;;;;;21.06;100.00;101743.59;5247208;28;20082;-63
2022/06/15 07:34:36;;;;;;;7.88;7.25;;;;;;;21.21;100.00;101759.78;5246577;28;20107;-63
2022/06/15 07:37:07;;;;;;;9.38;7.28;;;;;;;21.33;100.00;101771.06;5246260;28;20038;-64
2022/06/15 07:39:38;;;;;;;7.53;6.80;;;;;;;21.26;100.00;101770.66;5246417;28;20074;-63
2022/06/15 07:42:09;;;;;;;7.40;6.65;;;;;;;21.35;100.00;101790.00;5245942;28;20028;-62
2022/06/15 07:44:40;;;;;;;6.07;5.72;;;;;;;21.62;100.00;101783.66;5246297;28;20493;-63
2022/06/15 07:50:00;;;;;;;8.93;6.22;;;;;;;22.02;100.00;101782.75;5247139;28;20552;-63
2022/06/15 07:52:35;;;;;;;6.38;5.93;;;;;;;22.06;100.00;101789.28;5246017;28;20115;-62
2022/06/15 07:55:09;;;;;;;6.30;5.60;;;;;;;22.00;100.00;101790.47;5245512;28;20377;-63
2022/06/15 07:57:40;;;;;;;6.03;5.68;;;;;;;22.12;100.00;101788.03;5246158;28;20064;-63
2022/06/15 08:00:11;;;;;;;5.78;4.95;;;;;;;22.18;100.00;101777.72;5245707;28;20044;-62
2022/06/15 08:02:42;;;;;;;6.82;6.22;;;;;;;22.37;100.00;101794.03;5245519;28;20025;-64
2022/06/15 08:05:12;;;;;;;6.38;5.85;;;;;;;22.20;100.00;101773.53;5245418;28;20043;-65
2022/06/15 08:07:45;;;;;;;9.52;8.55;;;;;;;22.36;100.00;101765.72;5246012;28;20040;-63
2022/06/15 08:10:18;;;;;;;6.82;6.20;;;;;;;22.42;100.00;101780.97;5244492;28;20028;-62
2022/06/15 08:12:49;;;;;;;8.88;5.97;;;;;;;22.66;100.00;101780.63;5245743;28;20024;-62
2022/06/15 08:15:20;;;;;;;11.43;5.18;;;;;;;22.68;99.22;101783.06;5245562;28;20032;-62
2022/06/15 08:17:57;;;;;;;7.65;6.93;;;;;;;22.53;100.00;101778.75;5247869;28;20024;-62
2022/06/15 08:20:35;;;;;;;5.50;5.07;;;;;;;22.58;98.07;101784.13;5245928;28;20103;-62
2022/06/15 08:23:10;;;;;;;5.88;5.47;;;;;;;22.44;97.15;101764.16;5245291;28;20020;-62
2022/06/15 08:25:47;;;;;;;6.63;6.13;;;;;;;22.50;96.88;101776.66;5244935;28;20048;-63
2022/06/15 08:28:20;;;;;;;5.93;5.45;;;;;;;22.52;96.58;101753.16;5262703;28;20054;-63
2022/06/15 08:30:53;;;;;;;8.20;5.80;;;;;;;22.64;96.82;101755.34;5245696;28;20174;-64
2022/06/15 08:33:24;;;;;;;5.10;4.68;;;;;;;23.07;96.05;101769.38;5244790;28;20090;-63
2022/06/15 08:35:55;;;;;;;5.47;4.85;;;;;;;23.13;93.56;101767.25;5245259;28;20024;-64
2022/06/15 08:38:27;;;;;;;6.40;5.80;;;;;;;23.24;91.98;101779.63;5245205;28;20089;-64
2022/06/15 08:41:02;;;;;;;6.72;6.05;;;;;;;23.04;92.36;101774.69;5245203;28;20027;-63
2022/06/15 08:44:04;;;;;;;5.50;5.10;;;;;;;22.97;91.32;101769.66;5243987;28;20035;-63
2022/06/15 08:47:02;;;;;;;5.15;4.65;;;;;;;23.15;91.20;101774.09;5262183;28;20036;-63
2022/06/15 08:49:41;;;;;;;6.68;5.32;;;;;;;23.05;89.34;101773.56;5245248;28;20035;-63
2022/06/15 08:52:38;;;;;;;7.70;5.72;;;;;;;23.15;89.76;101776.03;5246376;28;20021;-64
2022/06/15 08:55:37;;;;;;;6.85;5.35;;;;;;;22.98;89.63;101770.47;5244271;28;20028;-62
2022/06/15 08:58:12;;;;;;;5.22;4.40;;;;;;;23.16;90.54;101774.91;5245447;28;20082;-64
2022/06/15 09:00:45;;;;;;;4.10;3.70;;;;;;;23.41;89.66;101763.13;5261773;28;20039;-63
2022/06/15 09:03:27;;;;;;;6.93;5.03;;;;;;;23.60;86.35;101756.56;5244611;28;20093;-62
2022/06/15 09:06:16;;;;;;;6.93;6.25;;;;;;;23.60;86.94;101753.81;5245125;28;20062;-63
2022/06/15 09:09:10;;;;;;;8.20;4.83;;;;;;;23.69;85.02;101758.19;5246163;28;20020;-63
2022/06/15 09:12:49;;;;;;;8.52;5.85;;;;;;;23.70;83.48;101765.31;5244807;28;20281;-64
2022/06/15 09:15:28;;;;;;;6.18;5.03;;;;;;;23.77;84.92;101764.84;5245686;28;20037;-63
2022/06/15 09:18:04;;;;;;;6.47;4.57;;;;;;;23.81;84.65;101752.84;5243930;28;20033;-62
2022/06/15 09:20:42;;;;;;;6.88;5.13;;;;;;;23.89;84.00;101762.28;5245223;28;20032;-63
2022/06/15 09:23:46;;;;;;;6.75;4.97;;;;;;;23.89;83.23;101754.00;5245899;28;20396;-64
2022/06/15 09:26:24;;;;;;;6.35;4.50;;;;;;;23.72;85.40;101759.47;5246618;28;20072;-64
2022/06/15 09:29:10;;;;;;;6.60;5.47;;;;;;;23.74;83.50;101759.97;5247290;28;20056;-64
2022/06/15 09:31:59;;;;;;;7.55;7.10;;;;;;;23.68;82.76;101750.22;5247230;28;20028;-65
2022/06/15 09:34:35;;;;;;;5.57;5.13;;;;;;;23.81;82.01;101739.06;5248253;28;20578;-64
2022/06/15 09:37:11;;;;;;;5.60;4.72;;;;;;;24.10;81.80;101767.94;5247075;28;20031;-63
2022/06/15 09:39:43;;;;;;;6.25;4.75;;;;;;;24.22;80.72;101768.13;5264105;28;20024;-64
2022/06/15 09:42:27;;;;;;;8.43;6.57;;;;;;;24.15;80.34;101771.34;5248480;28;20073;-65
2022/06/15 09:45:06;;;;;;;7.60;6.13;;;;;;;24.24;80.67;101768.59;5247262;28;20063;-64
2022/06/15 09:47:49;;;;;;;8.90;5.20;;;;;;;24.31;80.51;101763.41;5249814;28;20028;-63
2022/06/15 09:50:48;;;;;;;11.70;6.45;;;;;;;24.30;79.50;101772.00;5248089;28;20055;-64
2022/06/15 09:53:27;;;;;;;9.80;5.60;;;;;;;23.97;80.01;101768.91;5249971;28;20080;-63
2022/06/15 09:56:00;;;;;;;;;;;;;;;24.01;80.98;101773.47;5251026;28;20046;-63
2022/06/15 09:58:36;;;;;;;5.63;5.00;;;;;;;24.19;79.84;101744.72;5248388;28;19908;-65
2022/06/15 10:01:08;;;;;;;5.38;4.80;;;;;;;24.30;78.98;101760.97;5248906;28;20032;-63
2022/06/15 10:03:51;;;;;;;5.22;4.85;;;;;;;24.35;79.26;101758.03;5248478;28;20036;-63
2022/06/15 10:06:45;;;;;;;5.25;4.93;;;;;;;24.34;78.00;101772.97;5249060;28;20024;-63
2022/06/15 10:09:26;;;;;;;6.28;5.88;;;;;;;24.43;78.92;101744.22;5248166;28;20025;-63
2022/06/15 10:12:56;;;;;;;9.32;4.53;;;;;;;25.09;79.29;101760.47;5247026;28;20047;-63
2022/06/15 10:15:04;;;;;;;7.47;6.65;;;;;;;25.08;76.44;101754.13;5206411;28;1201070;-63
2022/06/15 10:17:40;;;;;;;6.57;5.55;;;;;;;24.84;77.56;101754.66;5248850;28;20033;-63
2022/06/15 10:20:26;;;;;;;6.45;4.07;;;;;;;24.93;78.52;101751.88;5248371;28;20032;-63
2022/06/15 10:22:59;;;;;;;4.53;4.07;;;;;;;25.29;78.38;101758.88;5247634;28;20025;-63
2022/06/15 10:25:35;;;;;;;4.93;4.53;;;;;;;25.73;76.16;101749.16;5247281;28;20037;-64
2022/06/15 10:28:14;;;;;;;5.32;5.00;;;;;;;25.84;74.77;101758.69;5247544;28;20109;-64
2022/06/15 10:30:57;;;;;;;12.50;5.47;;;;;;;25.51;74.03;101758.56;5247442;28;20392;-64
2022/06/15 10:33:47;;;;;;;5.82;5.22;;;;;;;25.97;77.00;101740.22;5244759;28;20074;-63
2022/06/15 10:36:36;;;;;;;9.77;4.00;;;;;;;25.97;74.79;101740.22;5246973;28;20123;-64
2022/06/15 10:39:20;;;;;;;12.77;6.47;;;;;;;25.72;73.74;101728.19;5248019;28;20400;-64
2022/06/15 10:41:57;;;;;;;6.25;5.63;;;;;;;25.62;73.77;101717.50;5248036;28;20020;-63
2022/06/15 10:44:48;;;;;;;6.68;6.07;;;;;;;25.67;73.44;101725.63;5247423;28;20129;-66
2022/06/15 10:47:26;;;;;;;7.05;5.70;;;;;;;25.67;75.83;101695.22;5247768;28;20056;-63
2022/06/15 10:50:00;;;;;;;8.10;5.00;;;;;;;26.29;76.21;101722.78;5247414;28;20032;-64
2022/06/15 10:52:32;;;;;;;13.57;5.72;;;;;;;26.47;72.17;101723.44;5247941;28;20484;-64
2022/06/15 11:04:23;;;;;;;4.88;4.57;;;;;;;25.94;72.26;101708.47;5248567;28;20093;-66
2022/06/15 11:07:23;;;;;;;4.45;4.22;;;;;;;26.46;73.94;101724.59;5249059;28;20032;-64
2022/06/15 11:09:54;;;;;;;6.28;4.72;;;;;;;26.73;69.99;101726.72;5247817;28;20036;-64
2022/06/15 11:12:30;;;;;;;7.15;5.32;;;;;;;26.20;70.54;101720.13;5248797;28;20506;-63
2022/06/15 11:15:05;;;;;;;6.57;4.75;;;;;;;26.01;72.92;101705.13;5247847;28;20036;-64
2022/06/15 11:20:41;;;;;;;6.28;5.78;;;;;;;26.77;70.41;101724.88;5249142;28;20292;-65
2022/06/15 11:23:19;;;;;;;7.70;5.53;;;;;;;26.47;71.18;101715.13;5248840;28;20032;-63
2022/06/15 11:25:56;;;;;;;4.72;4.35;;;;;;;26.47;70.96;101720.69;5247974;28;20089;-64
2022/06/15 11:28:35;;;;;;;5.28;4.55;;;;;;;26.29;69.75;101710.88;5249534;28;20021;-65
2022/06/15 11:31:14;;;;;;;4.82;4.43;;;;;;;26.06;70.92;101710.47;5248278;28;20043;-64
2022/06/15 11:33:48;;;;;;;4.10;3.72;;;;;;;26.40;72.17;101712.13;5246072;28;20090;-64
2022/06/15 11:36:30;;;;;;;4.18;3.88;;;;;;;27.11;71.37;101687.59;5247754;28;20086;-65
2022/06/15 11:39:04;;;;;;;7.70;3.67;;;;;;;27.40;68.41;101705.13;5247852;28;20020;-64
2022/06/15 11:41:41;;;;;;;7.10;4.55;;;;;;;27.17;68.66;101702.03;5247725;28;20028;-64
2022/06/15 11:44:31;;;;;;;5.28;4.78;;;;;;;26.69;69.48;101689.75;5247554;28;20020;-64
2022/06/15 11:47:32;;;;;;;6.10;5.65;;;;;;;26.77;70.76;101699.94;5247730;28;20031;-64
2022/06/15 11:50:24;;;;;;;5.63;4.50;;;;;;;27.03;70.06;101688.53;5246665;28;20268;-65
2022/06/15 11:53:16;;;;;;;5.13;4.05;;;;;;;26.78;69.32;101693.25;5264346;28;20035;-64
2022/06/15 11:56:01;;;;;;;5.45;4.65;;;;;;;26.79;70.63;101694.06;5264155;28;20028;-65
2022/06/15 11:58:46;;;;;;;4.72;4.45;;;;;;;26.90;68.67;101686.88;5247205;28;20017;-63
2022/06/15 12:01:49;;;;;;;5.38;3.42;;;;;;;26.81;69.43;101681.47;5247047;28;20020;-64
2022/06/15 12:04:41;;;;;;;5.18;4.78;;;;;;;26.90;70.07;101684.91;5246071;28;20447;-64
2022/06/15 12:07:32;;;;;;;5.20;4.70;;;;;;;26.86;68.08;101681.22;5263620;28;20033;-64
2022/06/15 12:10:14;;;;;;;5.43;3.22;;;;;;;26.64;67.79;101692.75;5248115;28;20108;-64
2022/06/15 12:13:00;;;;;;;6.10;4.30;;;;;;;26.32;68.31;101688.09;5245398;28;20404;-64
2022/06/15 12:15:58;;;;;;;5.50;3.30;;;;;;;26.56;68.46;101690.91;5246747;28;20054;-64
2022/06/15 12:18:47;;;;;;;5.15;4.78;;;;;;;27.24;72.69;101682.84;5246890;28;20107;-64
2022/06/15 12:21:43;;;;;;;5.28;4.80;;;;;;;27.67;66.58;101678.59;5246847;28;20032;-64
2022/06/15 12:24:24;;;;;;;5.20;3.88;;;;;;;27.79;66.61;101681.31;5246755;28;20034;-64
2022/06/15 12:27:21;;;;;;;5.20;4.70;;;;;;;27.64;66.53;101682.09;5246097;28;20605;-64
2022/06/15 12:30:04;;;;;;;5.68;4.38;;;;;;;27.51;65.60;101682.06;5244030;28;20032;-64
2022/06/15 12:32:46;;;;;;;7.60;3.58;;;;;;;27.78;67.14;101680.50;5245774;28;20078;-64
2022/06/15 12:35:50;;;;;;;6.03;5.50;;;;;;;27.89;65.12;101683.59;5245413;28;20028;-64
2022/06/15 12:38:49;;;;;;;4.57;3.20;;;;;;;27.54;64.56;101689.69;5213647;28;20501;-64
2022/06/15 12:44:23;;;;;;;3.55;3.15;;;;;;;28.35;64.41;101681.28;5245235;28;20081;-64
2022/06/15 12:46:54;;;;;;;4.53;3.58;;;;;;;28.25;63.59;101670.72;5246805;28;20385;-65
2022/06/15 12:50:02;;;;;;;4.70;3.70;;;;;;;28.67;66.22;101671.00;5245602;28;20046;-64
2022/06/15 12:52:58;;;;;;;3.85;3.50;;;;;;;28.94;65.66;101666.50;5245820;28;20113;-63
2022/06/15 12:55:47;;;;;;;3.47;3.28;;;;;;;29.42;64.27;101673.59;5246049;28;20109;-65
2022/06/15 12:58:52;;;;;;;2.97;2.72;;;;;;;29.21;62.60;101673.88;5250589;28;20073;-64
2022/06/15 13:01:31;;;;;;;2.92;2.72;;;;;;;29.18;60.64;101661.50;5248692;28;20519;-64
2022/06/15 13:04:28;;;;;;;6.50;4.07;;;;;;;29.51;60.97;101660.25;5248963;28;20480;-64
2022/06/15 13:07:31;;;;;;;8.27;3.47;;;;;;;29.81;62.20;101629.84;5248502;28;20029;-64
2022/06/15 13:10:07;;;;;;;5.60;3.17;;;;;;;30.47;58.44;101668.50;5248758;28;20062;-63
2022/06/15 13:12:47;;;;;;;3.97;3.67;;;;;;;29.93;57.38;101665.91;5248757;28;20028;-64
2022/06/15 13:15:24;;;;;;;8.85;4.10;;;;;;;30.17;59.41;101671.16;5264150;23;20043;-65
2022/06/15 13:18:11;;;;;;;5.18;3.35;;;;;;;29.85;57.91;101673.31;5269689;28;20027;-64
2022/06/15 13:20:48;;;;;;;3.75;3.33;;;;;;;30.58;60.46;101670.72;5253201;28;20016;-65